aviador You're here:

KCLK Decoded Metar

CLINTON in OK, USA
Report Time2017-05-28 06:55:00
UTC Time2017-05-28 06:46:13
Flight Rules vfr VFR
Wind020° at 14 Gusting to 21 kt
W.Decomp.*RWY 35: 12.9 kt HW 5.5 kt RCW
RWY 31: 6.4 kt HW 12.5 kt RCW
W.Rank020° ranks 10
Current wind is above 020° avg. (10.6)
Visibility9999 m
Phenomena:N/A
Clouds:N/A
Expected CloudBase > 2,000 ft AGL from Temp-Dew spread
CeilingNone
Temp18°C (ISA +6)
Dew Point13°C (73% RH)
AAT13.9°C
QNH1014 hPa
Density Alt2,513 ft
Elevation1,614 ft
Report Wrong Elevation
Raw Report
KCLK 280655Z AUTO 02014G21KT 10SM CLR 18/13 A2995 RMK AO2 LTG DSNT
NE AND SE=

Extra information for KCLK:More info

Metar Taf Metar & Taf Last 4 Metars F.Rules Stats Wind Profile Meteogram Temp Stats Airport Information Weather charts Add Link Nearby VenuesMetar ALERT Operation Metar Decoded Social comments

AIRNAV info for KCLK